TFFF Airport Information

Runway Information
Runway 10 Length 10826 ft width 147 ft
Elevation 10 ft Threshold 0 ft Heading 80
Runway 28 Length 10826 ft Width 147 ft
Elevation 14 ft Threshold 984 ft Heading 260
Airport Frequencies
Type APP Name FORT DE FR Frequency 121 MHZ
Type ATIS Name ATIS Frequency 127.85 MHZ
Type GND Name GND Frequency 121.9 MHZ
Type TWR Name FORT DE FR Frequency 118.5 MHZ
Airport Navaids
Type VOR-DME Name Fort De France Frequency 113300 KHZ
Type NDB Name Fort De France Frequency 329 KHZ
Airport Weather Information & NOTAM
ADDS - METARS form results

(1623 UTC 24 January 2020)
Data provider http://aviationweather.gov/metar/data/
 
METAR text: TFFF 241600Z AUTO 13011KT 9999 FEW029 30/22 Q1014 NOSIG
Conditions at: TFFF (LE LAMENTIN/MART, MQ) observed 1600 UTC 24 January 2020
Temperature: 30.0°C (86°F)
Dewpoint: 22.0°C (72°F) [RH = 62%]
Pressure (altimeter): 29.94 inches Hg (1014.0 mb)
Winds: from the SE (130 degrees) at 13 MPH (11 knots; 5.7 m/s)
Visibility: 6 or more miles (10+ km)
Ceiling: at least 12,000 feet AGL
Clouds: few clouds at 2900 feet AGL
Weather: no significant weather observed at this time

METAR text: TFFF 241530Z AUTO 12011KT 9999 SCT030 29/22 Q1014 NOSIG
Conditions at: TFFF (LE LAMENTIN/MART, MQ) observed 1530 UTC 24 January 2020
Temperature: 29.0°C (84°F)
Dewpoint: 22.0°C (72°F) [RH = 66%]
Pressure (altimeter): 29.94 inches Hg (1014.0 mb)
Winds: from the ESE (120 degrees) at 13 MPH (11 knots; 5.7 m/s)
Visibility: 6 or more miles (10+ km)
Ceiling: at least 12,000 feet AGL
Clouds: scattered clouds at 3000 feet AGL
Weather: no significant weather observed at this time

Forecast for: TFFF (LE LAMENTIN/MART, MQ)
Text: TAF TFFF 241100Z 2412/2512 12008KT 9999 SCT025 BKN040
Forecast period: 1200 UTC 24 January 2020 to 1200 UTC 25 January 2020
Forecast type: FROM: standard forecast or significant change
Winds: from the ESE (120 degrees) at 9 MPH (8 knots; 4.1 m/s)
Visibility: 6 or more miles 10+ km)
Ceiling: 4000 feet AGL
Clouds: scattered clouds at 2500 feet AGL
broken clouds at 4000 feet AGL
Weather: no significant weather forecast for this period
Text: PROB30
Forecast period: 2200 UTC 24 January 2020 to 1200 UTC 25 January 2020
Forecast type: TEMPORARY: The following changes expected for less than half the time period
Winds: variable direction winds at 2 MPH (2 knots; 1.0 m/s)
Visibility: missing
Ceiling: unknown
Clouds: missing
Weather: no significant weather forecast for this period
Text: TEMPO 2422/2512 VRB02KT
Forecast period: 0300 to 1000 UTC 25 January 2020
Forecast type: TEMPORARY: The following changes expected for less than half the time period
Visibility: 2.49 miles (4.01 km)
Ceiling: at least 12,000 feet AGL
Clouds: scattered clouds at 2000 feet AGL
Weather: SHRA  (rain showers)